createdAt,value
2023-04-18T00:02:07.497Z,19.40
2023-04-18T00:04:34.314Z,18.70
2023-04-18T00:07:01.201Z,18.80
2023-04-18T00:09:28.022Z,19.70
2023-04-18T00:11:54.979Z,18.40
2023-04-18T00:14:23.294Z,20.90
2023-04-18T00:16:49.959Z,16.90
2023-04-18T00:19:16.648Z,16.30
2023-04-18T00:21:45.058Z,17.13
2023-04-18T00:24:12.170Z,18.47
2023-04-18T00:26:39.126Z,18.40
2023-04-18T00:29:05.835Z,21.73
2023-04-18T00:31:35.470Z,18.10
2023-04-18T00:34:02.358Z,19.47
2023-04-18T00:36:29.020Z,17.83
2023-04-18T00:38:56.080Z,16.93
2023-04-18T00:41:25.639Z,16.90
2023-04-18T00:43:52.898Z,21.80
2023-04-18T00:46:19.584Z,16.63
2023-04-18T00:48:46.888Z,21.53
2023-04-18T00:51:14.449Z,17.13
2023-04-18T00:53:41.818Z,17.70
2023-04-18T00:56:08.585Z,18.00
2023-04-18T00:58:36.205Z,17.47
2023-04-18T01:01:03.433Z,17.63
2023-04-18T01:03:30.739Z,17.20
2023-04-18T01:05:57.642Z,16.17
2023-04-18T01:08:25.751Z,16.70
2023-04-18T01:10:52.458Z,15.40
2023-04-18T01:13:20.050Z,18.03
2023-04-18T01:15:47.806Z,15.77
2023-04-18T01:18:18.608Z,16.67
2023-04-18T01:20:47.524Z,17.83
2023-04-18T01:23:15.109Z,16.13
2023-04-18T01:25:41.963Z,16.07
2023-04-18T01:28:08.899Z,17.53
2023-04-18T01:30:35.798Z,14.77
2023-04-18T01:33:03.465Z,14.93
2023-04-18T01:35:30.940Z,16.23
2023-04-18T01:37:57.902Z,15.40
2023-04-18T01:40:25.161Z,14.30
2023-04-18T01:42:53.347Z,15.93
2023-04-18T01:45:20.544Z,16.40
2023-04-18T01:47:47.551Z,12.40
2023-04-18T01:50:14.712Z,14.07
2023-04-18T01:52:42.919Z,14.17
2023-04-18T01:55:09.912Z,14.07
2023-04-18T01:57:37.074Z,16.53
2023-04-18T02:00:04.802Z,15.63
2023-04-18T02:02:42.281Z,13.57
2023-04-18T02:05:09.787Z,13.60
2023-04-18T02:07:40.319Z,14.17
2023-04-18T02:10:08.839Z,14.17
2023-04-18T02:12:35.655Z,14.80
2023-04-18T02:15:02.528Z,15.47
2023-04-18T02:17:30.612Z,14.50
2023-04-18T02:19:57.600Z,16.23
2023-04-18T02:22:24.561Z,13.73
2023-04-18T02:24:51.427Z,17.30
2023-04-18T02:27:18.741Z,12.67
2023-04-18T02:29:46.007Z,11.87
2023-04-18T02:32:12.895Z,13.00
2023-04-18T02:34:43.227Z,14.60
2023-04-18T02:37:09.985Z,13.30
2023-04-18T02:39:38.425Z,13.83
2023-04-18T02:42:05.395Z,13.47
2023-04-18T02:44:32.186Z,18.07
2023-04-18T02:46:59.371Z,15.50
2023-04-18T02:49:26.235Z,14.33
2023-04-18T02:51:56.223Z,12.70
2023-04-18T02:54:23.469Z,14.47
2023-04-18T02:56:57.539Z,13.63
2023-04-18T03:00:03.141Z,15.00
2023-04-18T03:02:48.549Z,14.57
2023-04-18T03:05:32.442Z,13.53
2023-04-18T03:08:02.458Z,14.73
2023-04-18T03:10:30.046Z,15.40
2023-04-18T03:12:57.086Z,13.17
2023-04-18T03:15:24.698Z,14.50
2023-04-18T03:17:52.769Z,16.37
2023-04-18T03:20:22.019Z,16.63
2023-04-18T03:22:48.907Z,16.33
2023-04-18T03:25:20.559Z,15.07
2023-04-18T03:27:51.724Z,14.37
2023-04-18T03:30:20.881Z,15.23
2023-04-18T03:32:56.260Z,14.73
2023-04-18T03:35:23.275Z,13.20
2023-04-18T03:37:50.987Z,17.03
2023-04-18T03:40:24.067Z,16.23
2023-04-18T03:42:53.799Z,18.67
2023-04-18T03:45:21.464Z,17.47
2023-04-18T03:47:48.430Z,16.03
2023-04-18T03:50:16.736Z,17.83
2023-04-18T03:52:45.557Z,15.93
2023-04-18T03:55:13.634Z,16.50
2023-04-18T03:57:41.438Z,15.77
2023-04-18T04:00:12.768Z,16.80
2023-04-18T04:02:42.688Z,17.20
2023-04-18T04:05:13.010Z,15.23
2023-04-18T04:07:40.065Z,18.87
2023-04-18T04:10:07.712Z,18.60
2023-04-18T04:12:34.580Z,17.93
2023-04-18T04:15:01.620Z,19.67
2023-04-18T04:17:29.485Z,23.37
2023-04-18T04:19:56.329Z,20.73
2023-04-18T04:22:24.046Z,18.97
2023-04-18T04:24:50.820Z,23.30
2023-04-18T04:27:25.186Z,21.13
2023-04-18T04:29:52.489Z,21.87
2023-04-18T04:32:20.647Z,19.83
2023-04-18T04:34:47.649Z,21.90
2023-04-18T04:37:14.408Z,24.70
2023-04-18T04:39:53.950Z,22.53
2023-04-18T04:42:43.845Z,18.10
2023-04-18T04:45:17.578Z,21.10
2023-04-18T04:47:46.004Z,19.63
2023-04-18T04:50:15.805Z,23.07
2023-04-18T04:52:42.776Z,21.07
2023-04-18T04:55:09.729Z,25.43
2023-04-18T04:57:36.707Z,22.43
2023-04-18T05:00:14.437Z,21.67
2023-04-18T05:02:41.795Z,23.00
2023-04-18T05:05:08.682Z,22.77
2023-04-18T05:07:35.523Z,25.07
2023-04-18T05:10:02.675Z,25.83
2023-04-18T05:12:29.485Z,22.73
2023-04-18T05:14:56.259Z,24.97
2023-04-18T05:17:23.181Z,25.40
2023-04-18T05:19:50.006Z,22.90
2023-04-18T05:22:16.748Z,23.70
2023-04-18T05:24:43.490Z,23.90
2023-04-18T05:27:10.221Z,23.47
2023-04-18T05:29:36.936Z,24.10
2023-04-18T05:32:04.122Z,25.57
2023-04-18T05:34:31.985Z,24.20
2023-04-18T05:36:58.797Z,21.70
2023-04-18T05:39:25.725Z,23.20
2023-04-18T05:41:52.493Z,22.23
2023-04-18T05:44:20.105Z,23.73
2023-04-18T05:46:47.036Z,22.70
2023-04-18T05:49:14.059Z,23.70
2023-04-18T05:51:40.938Z,26.37
2023-04-18T05:54:07.678Z,19.57
2023-04-18T05:56:34.589Z,21.77
2023-04-18T05:59:01.391Z,22.33
2023-04-18T06:01:28.933Z,20.80
2023-04-18T06:03:56.066Z,22.73
2023-04-18T06:06:23.088Z,19.50
2023-04-18T06:08:49.820Z,19.80
2023-04-18T06:11:16.758Z,20.20
2023-04-18T06:13:43.540Z,18.97
2023-04-18T06:16:10.380Z,17.50
2023-04-18T06:18:37.241Z,20.37
2023-04-18T06:21:04.125Z,21.00
2023-04-18T06:23:30.990Z,18.43
2023-04-18T06:25:58.028Z,18.53
2023-04-18T06:28:24.931Z,17.73
2023-04-18T06:30:51.739Z,17.40
2023-04-18T06:33:18.479Z,18.00
2023-04-18T06:35:45.263Z,21.00
2023-04-18T06:38:12.045Z,16.53
2023-04-18T06:40:39.112Z,19.03
2023-04-18T06:43:05.912Z,19.23
2023-04-18T06:45:33.007Z,18.97
2023-04-18T06:47:59.993Z,18.13
2023-04-18T06:50:27.112Z,18.20
2023-04-18T06:52:54.257Z,19.67
2023-04-18T06:55:23.773Z,14.67
2023-04-18T06:57:50.563Z,16.47
2023-04-18T07:00:17.489Z,15.50
2023-04-18T07:02:44.830Z,11.47
2023-04-18T07:05:12.117Z,15.80
2023-04-18T07:07:39.188Z,13.20
2023-04-18T07:10:06.692Z,16.77
2023-04-18T07:12:34.067Z,13.80
2023-04-18T07:15:00.958Z,15.17
2023-04-18T07:17:27.811Z,15.53
2023-04-18T07:19:54.552Z,18.27
2023-04-18T07:22:21.248Z,15.73
2023-04-18T07:24:48.020Z,22.17
2023-04-18T07:27:14.798Z,20.27
2023-04-18T07:29:41.653Z,19.03
2023-04-18T07:32:08.703Z,19.00
2023-04-18T07:34:36.347Z,16.83
2023-04-18T07:37:03.249Z,14.60
2023-04-18T07:39:31.996Z,15.20
2023-04-18T07:41:59.040Z,12.43
2023-04-18T07:44:25.974Z,11.00
2023-04-18T07:46:52.681Z,13.27
2023-04-18T07:49:19.590Z,12.90
2023-04-18T07:51:46.267Z,11.67
2023-04-18T07:54:13.194Z,12.57
2023-04-18T07:56:39.905Z,11.77
2023-04-18T07:59:06.595Z,12.60
2023-04-18T08:01:33.485Z,12.10
2023-04-18T08:04:02.304Z,11.37
2023-04-18T08:06:29.651Z,15.70
2023-04-18T08:08:56.349Z,14.37
2023-04-18T08:11:23.650Z,12.23
2023-04-18T08:13:50.442Z,11.43
2023-04-18T08:16:17.631Z,13.10
2023-04-18T08:18:44.568Z,10.90
2023-04-18T08:21:11.410Z,12.00
2023-04-18T08:23:38.149Z,11.03
2023-04-18T08:26:04.884Z,10.93
2023-04-18T08:28:31.741Z,13.17
2023-04-18T08:30:58.540Z,9.03
2023-04-18T08:33:25.257Z,8.10
2023-04-18T08:35:52.053Z,10.37
2023-04-18T08:38:19.452Z,10.30
2023-04-18T08:40:46.238Z,8.57
2023-04-18T08:43:14.979Z,9.43
2023-04-18T08:45:42.274Z,8.77
2023-04-18T08:48:13.335Z,9.50
2023-04-18T08:50:40.782Z,10.33
2023-04-18T08:53:07.854Z,9.30
2023-04-18T08:55:35.642Z,12.23
2023-04-18T08:58:03.104Z,7.93
2023-04-18T09:00:30.676Z,12.87
2023-04-18T09:02:57.761Z,8.53
2023-04-18T09:05:25.478Z,8.83
2023-04-18T09:07:53.221Z,9.93
2023-04-18T09:10:30.236Z,8.10
2023-04-18T09:12:57.637Z,12.53
2023-04-18T09:15:27.521Z,9.00
2023-04-18T09:17:56.589Z,7.53
2023-04-18T09:20:30.567Z,9.53
2023-04-18T09:22:58.095Z,9.33
2023-04-18T09:25:29.384Z,8.53
2023-04-18T09:28:01.065Z,10.00
2023-04-18T09:30:34.365Z,10.93
2023-04-18T09:33:01.723Z,11.20
2023-04-18T09:35:28.821Z,8.03
2023-04-18T09:37:55.684Z,8.20
2023-04-18T09:40:22.487Z,8.17
2023-04-18T09:42:51.174Z,8.57
2023-04-18T09:45:17.889Z,8.53
2023-04-18T09:47:45.073Z,6.37
2023-04-18T09:50:12.020Z,10.57
2023-04-18T09:52:40.522Z,8.13
2023-04-18T09:55:08.524Z,8.20
2023-04-18T09:57:35.938Z,6.30
2023-04-18T10:00:17.520Z,8.07
2023-04-18T10:02:49.270Z,7.70
2023-04-18T10:05:19.513Z,7.10
2023-04-18T10:07:48.330Z,9.27
2023-04-18T10:10:15.554Z,7.97
2023-04-18T10:12:42.363Z,7.47
2023-04-18T10:15:09.975Z,10.00
2023-04-18T10:18:03.779Z,8.03
2023-04-18T10:20:35.326Z,5.47
2023-04-18T10:23:21.973Z,9.87
2023-04-18T10:25:49.547Z,7.20
2023-04-18T10:28:16.658Z,8.93
2023-04-18T10:30:44.583Z,7.33
2023-04-18T10:33:33.835Z,10.27
2023-04-18T10:36:09.913Z,8.73
2023-04-18T10:38:38.985Z,7.97
2023-04-18T10:41:26.378Z,12.33
2023-04-18T10:44:08.890Z,8.20
2023-04-18T10:46:36.610Z,9.83
2023-04-18T10:49:12.721Z,8.23
2023-04-18T10:51:39.879Z,8.40
2023-04-18T10:54:09.148Z,10.53
2023-04-18T10:56:36.176Z,12.87
2023-04-18T10:59:03.740Z,9.33
2023-04-18T11:01:32.676Z,8.77
2023-04-18T11:04:00.189Z,9.53
2023-04-18T11:06:27.893Z,7.67
2023-04-18T11:09:11.786Z,7.97
2023-04-18T11:11:38.737Z,8.37
2023-04-18T11:14:05.912Z,9.60
2023-04-18T11:16:33.608Z,7.70
2023-04-18T11:19:01.032Z,7.60
2023-04-18T11:21:30.455Z,9.00
2023-04-18T11:23:58.104Z,8.13
2023-04-18T11:26:29.152Z,9.53
2023-04-18T11:28:59.196Z,8.63
2023-04-18T11:31:26.507Z,9.37
2023-04-18T11:33:56.349Z,7.93
2023-04-18T11:36:23.125Z,10.20
2023-04-18T11:38:50.031Z,8.20
2023-04-18T11:41:16.778Z,8.27
2023-04-18T11:43:44.980Z,9.20
2023-04-18T11:46:12.365Z,7.07
2023-04-18T11:48:40.810Z,7.53
2023-04-18T11:51:08.185Z,9.53
2023-04-18T11:53:35.615Z,10.33
2023-04-18T11:56:03.962Z,9.33
2023-04-18T11:58:34.564Z,8.83
2023-04-18T12:01:21.656Z,6.70
2023-04-18T12:04:00.912Z,7.33
2023-04-18T12:06:29.918Z,6.03
2023-04-18T12:09:00.735Z,9.83
2023-04-18T12:11:27.479Z,7.90
2023-04-18T12:13:55.141Z,9.87
2023-04-18T12:16:22.009Z,7.77
2023-04-18T12:18:48.839Z,5.90
2023-04-18T12:21:17.119Z,7.80
2023-04-18T12:23:46.012Z,8.40
2023-04-18T12:26:13.872Z,8.70
2023-04-18T12:28:44.501Z,6.47
2023-04-18T12:31:11.580Z,7.47
2023-04-18T12:33:38.283Z,8.50
2023-04-18T12:36:05.648Z,8.30
2023-04-18T12:38:32.339Z,8.33
2023-04-18T12:40:59.793Z,8.80
2023-04-18T12:43:26.770Z,9.27
2023-04-18T12:45:53.439Z,8.33
2023-04-18T12:48:20.201Z,6.17
2023-04-18T12:50:46.900Z,8.13
2023-04-18T12:53:13.601Z,10.30
2023-04-18T12:55:40.410Z,9.27
2023-04-18T12:58:07.104Z,9.13
2023-04-18T13:00:33.954Z,10.37
2023-04-18T13:03:01.126Z,8.83
2023-04-18T13:05:32.438Z,9.50
2023-04-18T13:08:12.709Z,11.83
2023-04-18T13:10:43.605Z,12.63
2023-04-18T13:13:10.417Z,13.17
2023-04-18T13:15:37.297Z,11.30
2023-04-18T13:18:06.554Z,12.73
2023-04-18T13:20:34.336Z,13.27
2023-04-18T13:23:02.602Z,9.87
2023-04-18T13:25:29.604Z,11.53
2023-04-18T13:27:58.645Z,10.23
2023-04-18T13:30:25.521Z,9.90
2023-04-18T13:32:52.360Z,9.70
2023-04-18T13:35:19.165Z,9.93
2023-04-18T13:37:46.417Z,10.00
2023-04-18T13:40:13.786Z,12.57
2023-04-18T13:42:40.608Z,8.67
2023-04-18T13:45:07.584Z,12.83
2023-04-18T13:47:34.658Z,10.13
2023-04-18T13:50:01.585Z,11.33
2023-04-18T13:52:29.041Z,13.17
2023-04-18T13:54:55.830Z,10.40
2023-04-18T13:57:23.389Z,7.77
2023-04-18T13:59:50.158Z,11.20
2023-04-18T14:02:17.124Z,9.30
2023-04-18T14:04:44.209Z,8.50
2023-04-18T14:07:11.051Z,8.90
2023-04-18T14:09:37.832Z,10.87
2023-04-18T14:12:04.795Z,9.77
2023-04-18T14:14:31.462Z,10.27
2023-04-18T14:16:58.254Z,10.17
2023-04-18T14:19:25.230Z,10.33
2023-04-18T14:21:51.994Z,7.47
2023-04-18T14:24:18.850Z,8.43
2023-04-18T14:26:45.533Z,11.00
2023-04-18T14:29:12.585Z,14.83
2023-04-18T14:31:40.520Z,13.50
2023-04-18T14:34:08.512Z,13.30
2023-04-18T14:36:35.465Z,11.07
2023-04-18T14:39:02.799Z,12.97
2023-04-18T14:41:29.538Z,12.57
2023-04-18T14:43:56.254Z,14.07
2023-04-18T14:46:22.986Z,11.03
2023-04-18T14:48:49.728Z,12.73
2023-04-18T14:51:16.845Z,11.17
2023-04-18T14:53:44.275Z,13.90
2023-04-18T14:56:11.106Z,11.37
2023-04-18T14:58:37.907Z,14.23
2023-04-18T15:01:04.749Z,14.37
2023-04-18T15:03:31.766Z,14.77
2023-04-18T15:05:58.566Z,14.10
2023-04-18T15:08:25.435Z,13.17
2023-04-18T15:10:52.143Z,14.43
2023-04-18T15:13:18.866Z,10.83
2023-04-18T15:15:52.353Z,14.53
2023-04-18T15:18:19.074Z,14.60
2023-04-18T15:20:45.954Z,16.37
2023-04-18T15:23:13.896Z,15.90
2023-04-18T15:25:41.264Z,13.97
2023-04-18T15:28:07.970Z,16.97
2023-04-18T15:30:34.726Z,15.93
2023-04-18T15:33:02.498Z,13.23
2023-04-18T15:35:29.369Z,12.63
2023-04-18T15:37:56.731Z,13.50
2023-04-18T15:40:23.726Z,13.50
2023-04-18T15:42:51.123Z,10.60
2023-04-18T15:45:17.934Z,12.13
2023-04-18T15:47:44.666Z,10.43
2023-04-18T15:50:11.424Z,16.57
2023-04-18T15:52:38.518Z,17.63
2023-04-18T15:55:05.759Z,16.03
2023-04-18T15:57:32.575Z,14.17
2023-04-18T15:59:59.792Z,14.20
2023-04-18T16:02:27.100Z,13.70
2023-04-18T16:04:53.972Z,12.00
2023-04-18T16:07:20.688Z,16.43
2023-04-18T16:09:47.363Z,13.33
2023-04-18T16:12:14.267Z,14.17
2023-04-18T16:14:40.992Z,14.10
2023-04-18T16:17:07.801Z,12.80
2023-04-18T16:19:38.408Z,12.37
2023-04-18T16:22:07.324Z,12.03
2023-04-18T16:24:34.080Z,14.47
2023-04-18T16:27:01.275Z,13.57
2023-04-18T16:29:27.948Z,14.53
2023-04-18T16:31:54.664Z,13.77
2023-04-18T16:34:21.507Z,15.93
2023-04-18T16:36:50.812Z,13.03
2023-04-18T16:39:18.835Z,11.93
2023-04-18T16:41:45.637Z,15.20
2023-04-18T16:44:13.914Z,17.63
2023-04-18T16:46:40.958Z,12.53
2023-04-18T16:49:07.953Z,11.93
2023-04-18T16:51:37.257Z,10.70
2023-04-18T16:54:04.346Z,10.60
2023-04-18T16:56:30.993Z,11.90
2023-04-18T16:58:58.329Z,8.57
2023-04-18T17:01:25.157Z,11.50
2023-04-18T17:03:51.940Z,10.67
2023-04-18T17:06:19.606Z,9.67
2023-04-18T17:08:46.337Z,10.50
2023-04-18T17:11:12.988Z,8.97
2023-04-18T17:13:42.666Z,8.50
2023-04-18T17:16:09.906Z,8.77
2023-04-18T17:18:36.633Z,8.73
2023-04-18T17:21:03.524Z,7.37
2023-04-18T17:23:32.812Z,7.83
2023-04-18T17:25:59.848Z,6.90
2023-04-18T17:28:26.556Z,8.90
2023-04-18T17:30:53.782Z,8.17
2023-04-18T17:33:21.139Z,7.77
2023-04-18T17:35:48.379Z,8.47
2023-04-18T17:38:15.139Z,7.80
2023-04-18T17:40:41.832Z,9.20
2023-04-18T17:43:08.727Z,7.03
2023-04-18T17:45:35.626Z,8.90
2023-04-18T17:48:03.195Z,9.10
2023-04-18T17:50:30.264Z,11.00
2023-04-18T17:52:57.846Z,9.27
2023-04-18T17:55:26.315Z,11.17
2023-04-18T17:57:52.986Z,12.27
2023-04-18T18:00:19.716Z,13.00
2023-04-18T18:02:46.855Z,12.30
2023-04-18T18:05:13.902Z,16.43
2023-04-18T18:07:43.236Z,15.20
2023-04-18T18:10:11.461Z,10.13
2023-04-18T18:12:38.422Z,11.00
2023-04-18T18:15:05.960Z,12.37
2023-04-18T18:17:32.773Z,12.50
2023-04-18T18:19:59.630Z,11.33
2023-04-18T18:22:27.099Z,8.80
2023-04-18T18:24:53.808Z,12.00
2023-04-18T18:27:20.807Z,9.90
2023-04-18T18:29:48.273Z,9.30
2023-04-18T18:32:15.130Z,11.50
2023-04-18T18:34:41.792Z,11.83
2023-04-18T18:37:08.609Z,11.97
2023-04-18T18:39:36.754Z,12.20
2023-04-18T18:42:03.526Z,15.43
2023-04-18T18:44:30.888Z,13.77
2023-04-18T18:46:59.002Z,13.97
2023-04-18T18:49:26.620Z,14.93
2023-04-18T18:51:53.530Z,15.80
2023-04-18T18:54:20.556Z,18.50
2023-04-18T18:56:47.327Z,17.23
2023-04-18T18:59:15.713Z,16.93
2023-04-18T19:01:42.711Z,16.23
2023-04-18T19:04:09.759Z,17.40
2023-04-18T19:06:36.767Z,19.87
2023-04-18T19:09:05.340Z,20.97
2023-04-18T19:11:34.890Z,17.67
2023-04-18T19:14:01.660Z,20.10
2023-04-18T19:16:29.743Z,18.03
2023-04-18T19:18:56.566Z,19.90
2023-04-18T19:21:23.315Z,19.40
2023-04-18T19:23:50.109Z,18.63
2023-04-18T19:26:16.916Z,18.43
2023-04-18T19:28:43.641Z,18.90
2023-04-18T19:31:10.623Z,17.87
2023-04-18T19:33:38.001Z,19.57
2023-04-18T19:36:05.170Z,19.80
2023-04-18T19:38:34.293Z,18.93
2023-04-18T19:41:01.537Z,19.00
2023-04-18T19:43:28.515Z,20.13
2023-04-18T19:45:56.552Z,20.87
2023-04-18T19:48:23.378Z,18.70
2023-04-18T19:50:51.720Z,17.93
2023-04-18T19:53:20.541Z,18.27
2023-04-18T19:55:47.369Z,18.67
2023-04-18T19:58:33.380Z,17.47
2023-04-18T20:01:00.282Z,18.77
2023-04-18T20:03:27.331Z,21.30
2023-04-18T20:05:54.647Z,20.93
2023-04-18T20:08:21.332Z,21.67
2023-04-18T20:10:48.076Z,15.80
2023-04-18T20:13:14.792Z,18.70
2023-04-18T20:15:42.383Z,19.20
2023-04-18T20:18:09.174Z,19.40
2023-04-18T20:20:36.191Z,20.03
2023-04-18T20:23:03.556Z,19.83
2023-04-18T20:25:30.677Z,23.33
2023-04-18T20:27:57.410Z,19.00
2023-04-18T20:30:24.447Z,20.83
2023-04-18T20:32:51.535Z,21.53
2023-04-18T20:35:20.041Z,21.77
2023-04-18T20:37:46.834Z,19.67
2023-04-18T20:40:13.918Z,22.50
2023-04-18T20:42:40.887Z,21.17
2023-04-18T20:45:11.312Z,22.23
2023-04-18T20:47:39.106Z,21.93
2023-04-18T20:50:06.279Z,20.80
2023-04-18T20:52:33.040Z,20.47
2023-04-18T20:54:59.794Z,21.87
2023-04-18T20:57:26.690Z,21.73
2023-04-18T20:59:53.490Z,23.93
2023-04-18T21:02:20.321Z,21.73
2023-04-18T21:04:47.197Z,23.83
2023-04-18T21:07:13.928Z,22.20
2023-04-18T21:09:40.925Z,19.90
2023-04-18T21:12:07.721Z,22.37
2023-04-18T21:14:34.379Z,19.97
2023-04-18T21:17:01.912Z,20.40
2023-04-18T21:19:28.724Z,19.40
2023-04-18T21:21:55.923Z,20.57
2023-04-18T21:24:22.700Z,20.30
2023-04-18T21:26:50.023Z,20.13
2023-04-18T21:29:16.759Z,19.73
2023-04-18T21:31:43.781Z,21.53
2023-04-18T21:34:11.430Z,21.27
2023-04-18T21:36:40.766Z,18.57
2023-04-18T21:39:08.473Z,18.00
2023-04-18T21:41:35.606Z,19.37
2023-04-18T21:44:02.322Z,19.93
2023-04-18T21:46:29.492Z,19.77
2023-04-18T21:48:56.373Z,20.67
2023-04-18T21:51:23.248Z,19.93
2023-04-18T21:53:50.442Z,19.50
2023-04-18T21:56:18.299Z,21.47
2023-04-18T21:58:45.534Z,19.97
2023-04-18T22:01:12.345Z,19.93
2023-04-18T22:03:39.532Z,20.37
2023-04-18T22:06:06.559Z,20.63
2023-04-18T22:08:34.359Z,20.33
2023-04-18T22:11:01.111Z,20.97
2023-04-18T22:13:33.274Z,20.43
2023-04-18T22:16:02.411Z,19.37
2023-04-18T22:18:31.553Z,22.37
2023-04-18T22:20:58.249Z,20.43
2023-04-18T22:23:26.197Z,20.30
2023-04-18T22:25:53.009Z,18.03
2023-04-18T22:28:19.769Z,18.53
2023-04-18T22:30:46.585Z,19.20
2023-04-18T22:33:13.280Z,19.07
2023-04-18T22:35:39.954Z,19.10
2023-04-18T22:38:06.952Z,20.37
2023-04-18T22:40:33.687Z,19.70
2023-04-18T22:43:00.687Z,18.30
2023-04-18T22:45:27.660Z,20.40
2023-04-18T22:47:54.513Z,19.90
2023-04-18T22:50:21.424Z,17.17
2023-04-18T22:52:48.267Z,19.37
2023-04-18T22:55:16.633Z,17.33
2023-04-18T22:57:43.379Z,16.63
2023-04-18T23:00:10.632Z,19.03
2023-04-18T23:02:37.893Z,18.57
2023-04-18T23:05:07.015Z,16.60
2023-04-18T23:07:33.701Z,17.70
2023-04-18T23:10:00.440Z,19.43
2023-04-18T23:12:28.509Z,18.20
2023-04-18T23:14:55.325Z,16.37
2023-04-18T23:17:22.142Z,18.83
2023-04-18T23:19:48.886Z,14.20
2023-04-18T23:22:15.644Z,17.17
2023-04-18T23:24:42.451Z,17.37
2023-04-18T23:27:09.224Z,19.23
2023-04-18T23:29:39.656Z,16.00
2023-04-18T23:32:06.989Z,14.60
2023-04-18T23:34:33.811Z,17.07
2023-04-18T23:37:01.054Z,15.77
2023-04-18T23:39:27.841Z,17.33
2023-04-18T23:41:54.712Z,16.50
2023-04-18T23:44:21.565Z,16.90
2023-04-18T23:46:48.509Z,21.00
2023-04-18T23:49:15.917Z,17.10
2023-04-18T23:51:42.709Z,16.63
2023-04-18T23:54:09.466Z,18.40
2023-04-18T23:56:36.223Z,15.97
2023-04-18T23:59:02.942Z,16.30
